Oxford, Kansas
Current Conditions -  °F | °C
As of 6:54 PM on Sunday 23 Nov 2014 (Local Time) from KWLD Reporting Station
Light Rain Light Rain  
Wind Chill: 31°   Ceiling: 5000
Heat Index: 41°   Visibility: 10mi
Dew Point: 38°   Wind: 25mph
Humidity: 89%   Direction: 350°N
Pressure: 29.58"   Gusts: 40mph
Location:  37.27°N, 97.17°W
Report Text: KWLD 240054Z AUTO 35022G35KT 10SM -RA SCT020 OVC050 05/03 A2958 RMK AO2 PK WND 35035/0045 SLP018 P0003 T00500033
Loading
Personal Weather Stations






























Interactive Weather Map New forecast layout! Learn more

10-Day Weather Forecast

Advertisements
Track Severe Weather on mobile